Time;durP1;ratioP1;P1;durP2;ratioP2;P2;SDS_P1;SDS_P2;PMS_P1;PMS_P2;Temp;Humidity;BMP_temperature;BMP_pressure;BME280_temperature;BME280_humidity;BME280_pressure;Samples;Min_cycle;Max_cycle;Signal;HPM_P1;HPM_P2
2023/01/26 00:01:29;;;;;;;;;;;-0.30;99.90;;;;;;5026827;28;19951;-81
2023/01/26 00:03:55;;;;;;;;;;;-0.30;99.90;;;;;;5053010;28;19920;-80
2023/01/26 00:06:21;;;;;;;;;;;0.70;99.90;;;;;;5054009;28;19927;-81
2023/01/26 00:08:47;;;;;;;;;;;0.60;99.90;;;;;;5051899;28;20340;-81
2023/01/26 00:11:14;;;;;;;;;;;-0.20;99.90;;;;;;5055849;28;20287;-81
2023/01/26 00:13:40;;;;;;;;;;;-0.30;99.90;;;;;;5054769;28;20272;-81
2023/01/26 00:16:10;;;;;;;;;;;-0.30;99.90;;;;;;5039156;28;19947;-81
2023/01/26 00:18:36;;;;;;;;;;;-0.30;99.90;;;;;;5054980;28;20005;-81
2023/01/26 00:21:02;;;;;;;;;;;-0.20;99.90;;;;;;5055544;28;19921;-81
2023/01/26 00:23:28;;;;;;;;;;;-0.20;99.90;;;;;;5035108;28;20388;-81
2023/01/26 00:25:54;;;;;;;;;;;0.60;99.90;;;;;;5055437;28;19928;-80
2023/01/26 00:28:19;;;;;;;;;;;0.10;99.90;;;;;;5046378;28;19920;-81
2023/01/26 00:30:45;;;;;;;;;;;0.20;99.90;;;;;;5021655;28;20296;-81
2023/01/26 00:33:10;;;;;;;;;;;-0.30;99.90;;;;;;5055514;28;19953;-80
2023/01/26 00:35:36;;;;;;;;;;;-0.30;99.90;;;;;;5071844;28;19974;-80
2023/01/26 00:38:02;;;;;;;;;;;0.40;99.90;;;;;;5055321;28;19920;-81
2023/01/26 00:40:27;;;;;;;;;;;-0.30;99.90;;;;;;5037438;28;20257;-81
2023/01/26 00:42:53;;;;;;;;;;;-0.30;99.90;;;;;;5072045;28;19927;-81
2023/01/26 00:45:19;;;;;;;;;;;-0.30;99.90;;;;;;5054919;28;19920;-80
2023/01/26 00:47:45;;;;;;;;;;;-0.30;99.90;;;;;;5049932;28;20422;-81
2023/01/26 00:50:10;;;;;;;;;;;-0.30;99.90;;;;;;5026178;28;20011;-80
2023/01/26 00:52:36;;;;;;;;;;;0.10;99.90;;;;;;5052728;28;20410;-81
2023/01/26 00:55:01;;;;;;;;;;;-0.40;99.90;;;;;;5040137;28;19928;-81
2023/01/26 00:57:27;;;;;;;;;;;-0.30;99.90;;;;;;5055286;28;19993;-79
2023/01/26 00:59:53;;;;;;;;;;;-0.30;99.90;;;;;;5055182;28;19951;-80
2023/01/26 01:02:19;;;;;;;;;;;-0.40;99.90;;;;;;5055130;28;20314;-81
2023/01/26 01:04:44;;;;;;;;;;;0.20;99.90;;;;;;5057612;28;20279;-81
2023/01/26 01:07:10;;;;;;;;;;;0.30;99.90;;;;;;5049925;28;19920;-81
2023/01/26 01:09:36;;;;;;;;;;;-0.10;99.90;;;;;;5047759;28;19931;-81
2023/01/26 01:12:02;;;;;;;;;;;-0.30;99.90;;;;;;5058212;28;20429;-80
2023/01/26 01:14:27;;;;;;;;;;;-0.30;99.90;;;;;;5043254;28;19920;-80
2023/01/26 01:16:53;;;;;;;;;;;-0.30;99.90;;;;;;5041281;28;19974;-80
2023/01/26 01:19:19;;;;;;;;;;;-0.30;99.90;;;;;;5041507;28;20344;-80
2023/01/26 01:21:44;;;;;;;;;;;-0.30;99.90;;;;;;5039236;28;19921;-81
2023/01/26 01:24:10;;;;;;;;;;;-0.60;99.90;;;;;;5070764;28;20391;-80
2023/01/26 01:26:36;;;;;;;;;;;0.50;99.90;;;;;;5024504;28;19928;-81
2023/01/26 01:29:02;;;;;;;;;;;-0.40;99.90;;;;;;5038680;28;19963;-81
2023/01/26 01:31:28;;;;;;;;;;;0.70;99.90;;;;;;5061229;28;20375;-81
2023/01/26 01:33:54;;;;;;;;;;;-0.20;99.90;;;;;;5041442;28;20010;-81
2023/01/26 01:36:20;;;;;;;;;;;-0.30;99.90;;;;;;5058064;28;19920;-80
2023/01/26 01:38:46;;;;;;;;;;;-0.20;99.90;;;;;;5056651;28;19932;-81
2023/01/26 01:41:13;;;;;;;;;;;-0.20;99.90;;;;;;5057917;28;19966;-81
2023/01/26 01:43:39;;;;;;;;;;;0.30;99.90;;;;;;5057822;28;20352;-80
2023/01/26 01:46:28;;;;;;;;;;;-0.10;99.90;;;;;;5055073;28;19959;-80
2023/01/26 01:48:59;;;;;;;;;;;-0.20;99.90;;;;;;5051754;28;19993;-81
2023/01/26 01:51:35;;;;;;;;;;;-0.20;99.90;;;;;;5049749;28;20441;-80
2023/01/26 01:54:03;;;;;;;;;;;-0.10;99.90;;;;;;5032704;28;19920;-80
2023/01/26 01:56:29;;;;;;;;;;;-0.20;99.90;;;;;;5057731;28;19927;-80
2023/01/26 01:58:56;;;;;;;;;;;-0.20;99.90;;;;;;5043934;28;20007;-81
2023/01/26 02:01:23;;;;;;;;;;;0.20;99.90;;;;;;5074424;28;19982;-81
2023/01/26 02:03:50;;;;;;;;;;;-0.20;99.90;;;;;;5057506;28;20019;-81
2023/01/26 02:06:28;;;;;;;;;;;-0.20;99.90;;;;;;5056436;28;19928;-81
2023/01/26 02:08:55;;;;;;;;;;;-0.10;99.90;;;;;;5050117;28;19921;-81
2023/01/26 02:11:39;;;;;;;;;;;-0.20;99.90;;;;;;5047777;28;19966;-80
2023/01/26 02:14:07;;;;;;;;;;;-0.20;99.90;;;;;;5057041;28;19920;-80
2023/01/26 02:16:33;;;;;;;;;;;0.10;99.90;;;;;;5056969;28;20315;-80
2023/01/26 02:18:58;;;;;;;;;;;-0.10;99.90;;;;;;5020878;28;19920;-80
2023/01/26 02:21:24;;;;;;;;;;;0.60;99.90;;;;;;5046572;28;19928;-81
2023/01/26 02:24:02;;;;;;;;;;;-0.10;99.90;;;;;;5056440;28;19924;-80
2023/01/26 02:26:29;;;;;;;;;;;-0.10;99.90;;;;;;5029925;28;19978;-81
2023/01/26 02:28:55;;;;;;;;;;;-0.10;99.90;;;;;;5053731;28;20307;-80
2023/01/26 02:31:22;;;;;;;;;;;-0.80;99.90;;;;;;5057468;28;19974;-80
2023/01/26 02:33:47;;;;;;;;;;;0.00;99.90;;;;;;5057109;28;19920;-81
2023/01/26 02:36:18;;;;;;;;;;;0.00;99.90;;;;;;5057275;28;19928;-80
2023/01/26 02:38:47;;;;;;;;;;;0.00;99.90;;;;;;5043435;28;19921;-80
2023/01/26 02:42:37;;;;;;;;;;;0.00;99.90;;;;;;5070251;28;19921;-80
2023/01/26 02:44:03;;;;;;;;;;;0.00;99.90;;;;;;5050686;28;19920;-80
2023/01/26 02:46:29;;;;;;;;;;;0.00;99.90;;;;;;5056999;28;19927;-80
2023/01/26 02:51:38;;;;;;;;;;;0.00;99.90;;;;;;5057008;28;20002;-79
2023/01/26 02:54:04;;;;;;;;;;;0.80;99.90;;;;;;5055098;28;20010;-80
2023/01/26 02:56:30;;;;;;;;;;;0.00;99.90;;;;;;5056610;28;19927;-80
2023/01/26 02:58:55;;;;;;;;;;;0.00;99.90;;;;;;5056240;28;20292;-80
2023/01/26 03:01:21;;;;;;;;;;;0.80;99.90;;;;;;5056701;28;19963;-80
2023/01/26 03:03:47;;;;;;;;;;;-1.10;99.90;;;;;;5055620;28;20356;-80
2023/01/26 03:06:14;;;;;;;;;;;0.00;99.90;;;;;;5048460;28;20003;-80
2023/01/26 03:08:40;;;;;;;;;;;0.00;99.90;;;;;;5049425;28;19927;-80
2023/01/26 03:11:07;;;;;;;;;;;0.10;99.90;;;;;;5056076;28;19927;-80
2023/01/26 03:13:32;;;;;;;;;;;0.80;99.90;;;;;;5056317;28;19920;-80
2023/01/26 03:16:05;;;;;;;;;;;0.10;99.90;;;;;;5056457;28;20019;-80
2023/01/26 03:29:29;;;;;;;;;;;0.00;99.90;;;;;;5042613;28;20486;-79
2023/01/26 03:31:55;;;;;;;;;;;0.50;99.90;;;;;;5055976;28;19999;-79
2023/01/26 03:34:20;;;;;;;;;;;0.90;99.90;;;;;;5073393;28;19924;-79
2023/01/26 03:36:47;;;;;;;;;;;0.10;99.90;;;;;;5056222;28;19931;-79
2023/01/26 03:41:06;;;;;;;;;;;0.90;99.90;;;;;;5053741;28;19921;-79
2023/01/26 03:58:23;;;;;;;;;;;0.50;99.90;;;;;;5052892;28;19920;-78
2023/01/26 04:00:49;;;;;;;;;;;0.20;99.90;;;;;;5089141;28;19920;-79
2023/01/26 04:08:45;;;;;;;;;;;0.20;99.90;;;;;;5054698;28;19974;-77
2023/01/26 04:11:11;;;;;;;;;;;0.20;99.90;;;;;;5055438;28;19927;-77
2023/01/26 04:21:50;;;;;;;;;;;-0.80;99.90;;;;;;5055721;28;19975;-77
2023/01/26 04:24:15;;;;;;;;;;;0.70;99.90;;;;;;5040424;28;19979;-77
2023/01/26 04:26:41;;;;;;;;;;;1.40;99.90;;;;;;5030259;28;19920;-77
2023/01/26 04:29:11;;;;;;;;;;;0.30;99.90;;;;;;5040729;28;19920;-77
2023/01/26 04:31:37;;;;;;;;;;;0.30;99.90;;;;;;5055530;28;20386;-78
2023/01/26 04:34:04;;;;;;;;;;;0.30;99.90;;;;;;5049833;28;19921;-77
2023/01/26 04:36:29;;;;;;;;;;;0.30;99.90;;;;;;5029838;28;19920;-77
2023/01/26 04:38:55;;;;;;;;;;;0.40;99.90;;;;;;5038848;28;20003;-78
2023/01/26 04:41:21;;;;;;;;;;;0.40;99.90;;;;;;5059168;28;20014;-78
2023/01/26 04:43:47;;;;;;;;;;;0.40;99.90;;;;;;5077518;28;19936;-78
2023/01/26 04:46:13;;;;;;;;;;;0.40;99.90;;;;;;5042875;28;19920;-78
2023/01/26 04:48:38;;;;;;;;;;;0.90;99.90;;;;;;5031440;28;20196;-78
2023/01/26 04:51:05;;;;;;;;;;;0.40;99.90;;;;;;5055209;28;19928;-78
2023/01/26 04:53:31;;;;;;;;;;;0.40;99.90;;;;;;5049071;28;19967;-78
2023/01/26 04:55:57;;;;;;;;;;;0.40;99.90;;;;;;5055448;28;19955;-78
2023/01/26 04:58:23;;;;;;;;;;;0.20;99.90;;;;;;5055661;28;20449;-78
2023/01/26 05:00:49;;;;;;;;;;;0.40;99.90;;;;;;5058841;28;19920;-78
2023/01/26 05:03:15;;;;;;;;;;;0.70;99.90;;;;;;5058783;28;19920;-78
2023/01/26 05:05:40;;;;;;;;;;;1.20;99.90;;;;;;5058708;28;19920;-78
2023/01/26 05:08:06;;;;;;;;;;;1.20;99.90;;;;;;5041782;28;20346;-78
2023/01/26 05:10:31;;;;;;;;;;;0.50;99.90;;;;;;5057414;28;19920;-78
2023/01/26 05:12:57;;;;;;;;;;;0.50;99.90;;;;;;5058358;28;19999;-78
2023/01/26 05:15:23;;;;;;;;;;;0.50;99.90;;;;;;5027444;28;19928;-78
2023/01/26 05:17:49;;;;;;;;;;;0.50;99.90;;;;;;5058605;28;19921;-79
2023/01/26 05:20:14;;;;;;;;;;;0.70;99.90;;;;;;5043307;28;20334;-79
2023/01/26 05:22:40;;;;;;;;;;;0.50;99.90;;;;;;5045024;28;19920;-79
2023/01/26 05:25:06;;;;;;;;;;;0.50;99.90;;;;;;5057611;28;19930;-79
2023/01/26 05:27:31;;;;;;;;;;;0.50;99.90;;;;;;5051021;28;19921;-79
2023/01/26 05:29:59;;;;;;;;;;;0.50;99.90;;;;;;5034130;28;19978;-79
2023/01/26 05:32:28;;;;;;;;;;;0.80;99.90;;;;;;5055230;28;19970;-79
2023/01/26 05:34:54;;;;;;;;;;;0.50;99.90;;;;;;5051707;28;19924;-79
2023/01/26 05:37:19;;;;;;;;;;;1.00;99.90;;;;;;5052935;28;19968;-79
2023/01/26 05:39:45;;;;;;;;;;;1.00;99.90;;;;;;5052551;28;19920;-79
2023/01/26 05:42:11;;;;;;;;;;;0.90;99.90;;;;;;5039856;28;19921;-80
2023/01/26 05:44:37;;;;;;;;;;;0.50;99.90;;;;;;5038354;28;19975;-79
2023/01/26 05:47:02;;;;;;;;;;;1.30;99.90;;;;;;5056073;28;19928;-80
2023/01/26 05:49:28;;;;;;;;;;;0.50;99.90;;;;;;5056466;28;20293;-80
2023/01/26 05:51:53;;;;;;;;;;;1.00;99.90;;;;;;5038161;28;20328;-79
2023/01/26 05:54:19;;;;;;;;;;;0.50;99.90;;;;;;5034215;28;19999;-80
2023/01/26 05:56:44;;;;;;;;;;;0.60;99.90;;;;;;5050362;28;19921;-79
2023/01/26 05:59:10;;;;;;;;;;;-0.30;99.90;;;;;;5025590;28;19952;-79
2023/01/26 06:01:36;;;;;;;;;;;0.90;99.90;;;;;;5053180;28;20006;-79
2023/01/26 06:04:01;;;;;;;;;;;0.50;99.90;;;;;;5038536;28;19924;-80
2023/01/26 06:06:27;;;;;;;;;;;0.60;99.90;;;;;;5067303;28;20605;-79
2023/01/26 06:08:52;;;;;;;;;;;0.60;99.90;;;;;;5056165;28;19921;-80
2023/01/26 06:11:18;;;;;;;;;;;0.60;99.90;;;;;;5052718;28;20339;-80
2023/01/26 06:13:44;;;;;;;;;;;1.40;99.90;;;;;;5029809;28;19974;-80
2023/01/26 06:16:09;;;;;;;;;;;0.60;99.90;;;;;;5053673;28;19974;-80
2023/01/26 06:18:35;;;;;;;;;;;0.60;99.90;;;;;;5051680;28;19947;-80
2023/01/26 06:21:00;;;;;;;;;;;0.60;99.90;;;;;;5054405;28;19920;-80
2023/01/26 06:23:26;;;;;;;;;;;0.60;99.90;;;;;;5046530;28;20019;-80
2023/01/26 06:25:52;;;;;;;;;;;0.60;99.90;;;;;;5055744;28;20386;-81
2023/01/26 06:28:20;;;;;;;;;;;0.60;99.90;;;;;;5056545;28;19929;-80
2023/01/26 06:30:46;;;;;;;;;;;1.20;99.90;;;;;;5051688;28;19970;-80
2023/01/26 06:33:11;;;;;;;;;;;0.80;99.90;;;;;;5052163;28;19968;-80
2023/01/26 06:35:37;;;;;;;;;;;0.70;99.90;;;;;;5045535;28;19920;-81
2023/01/26 06:38:02;;;;;;;;;;;0.90;99.90;;;;;;5051264;28;19921;-81
2023/01/26 06:40:28;;;;;;;;;;;0.60;99.90;;;;;;5043250;28;19921;-80
2023/01/26 06:42:54;;;;;;;;;;;0.60;99.90;;;;;;5053839;28;20330;-81
2023/01/26 06:45:19;;;;;;;;;;;0.70;99.90;;;;;;5051784;28;19920;-81
2023/01/26 06:47:49;;;;;;;;;;;1.20;99.90;;;;;;5059161;28;19921;-81
2023/01/26 06:50:17;;;;;;;;;;;0.60;99.90;;;;;;5045264;28;20385;-81
2023/01/26 06:52:44;;;;;;;;;;;0.70;99.90;;;;;;5048836;28;20245;-81
2023/01/26 06:55:17;;;;;;;;;;;1.50;99.90;;;;;;5043995;28;19920;-80
2023/01/26 06:57:43;;;;;;;;;;;0.70;99.90;;;;;;5043205;28;19920;-80
2023/01/26 07:00:09;;;;;;;;;;;0.70;99.90;;;;;;5044247;28;19930;-81
2023/01/26 07:02:34;;;;;;;;;;;0.70;99.90;;;;;;5036975;28;19920;-81
2023/01/26 07:05:00;;;;;;;;;;;1.10;99.90;;;;;;5043374;28;19971;-81
2023/01/26 07:07:25;;;;;;;;;;;0.90;99.90;;;;;;5052944;28;19924;-80
2023/01/26 07:09:51;;;;;;;;;;;0.70;99.90;;;;;;5035392;28;20326;-81
2023/01/26 07:12:16;;;;;;;;;;;0.70;99.90;;;;;;5053218;28;19920;-81
2023/01/26 07:14:42;;;;;;;;;;;0.70;99.90;;;;;;5051620;28;19968;-81
2023/01/26 07:17:08;;;;;;;;;;;1.90;99.90;;;;;;5053694;28;19920;-79
2023/01/26 07:19:33;;;;;;;;;;;1.00;99.90;;;;;;5052476;28;19920;-80
2023/01/26 07:22:00;;;;;;;;;;;0.80;99.90;;;;;;5050146;28;20379;-79
2023/01/26 07:24:26;;;;;;;;;;;0.80;99.90;;;;;;5047421;28;20011;-79
2023/01/26 07:26:51;;;;;;;;;;;0.70;99.90;;;;;;5053282;28;20007;-79
2023/01/26 07:29:17;;;;;;;;;;;0.90;99.90;;;;;;5044482;28;19947;-79
2023/01/26 07:31:43;;;;;;;;;;;0.80;99.90;;;;;;5052703;28;19921;-79
2023/01/26 07:34:09;;;;;;;;;;;0.80;99.90;;;;;;5052362;28;19970;-79
2023/01/26 07:36:35;;;;;;;;;;;0.80;99.90;;;;;;5053202;28;19982;-79
2023/01/26 07:39:00;;;;;;;;;;;0.80;99.90;;;;;;5025937;28;19995;-78
2023/01/26 07:41:26;;;;;;;;;;;1.10;99.90;;;;;;5038770;28;19924;-78
2023/01/26 07:43:51;;;;;;;;;;;0.80;99.90;;;;;;5051478;28;19920;-78
2023/01/26 07:46:17;;;;;;;;;;;0.80;99.90;;;;;;5052300;28;19921;-78
2023/01/26 07:48:43;;;;;;;;;;;0.80;99.90;;;;;;5044817;28;19920;-78
2023/01/26 07:51:09;;;;;;;;;;;0.80;99.90;;;;;;5053381;28;20390;-79
2023/01/26 07:53:38;;;;;;;;;;;1.10;99.90;;;;;;5077148;28;19924;-78
2023/01/26 07:56:14;;;;;;;;;;;0.80;99.90;;;;;;5066313;28;19920;-78
2023/01/26 07:58:40;;;;;;;;;;;1.00;99.90;;;;;;5050978;28;20376;-78
2023/01/26 08:01:11;;;;;;;;;;;0.90;99.90;;;;;;5047868;28;19930;-79
2023/01/26 08:03:36;;;;;;;;;;;0.90;99.90;;;;;;5053041;28;20475;-79
2023/01/26 08:06:02;;;;;;;;;;;1.30;99.90;;;;;;5087438;28;19920;-78
2023/01/26 08:08:28;;;;;;;;;;;0.90;99.90;;;;;;5039853;28;20264;-78
2023/01/26 08:10:57;;;;;;;;;;;0.90;99.90;;;;;;5038141;28;20360;-78
2023/01/26 08:13:22;;;;;;;;;;;0.90;99.90;;;;;;5054592;28;19920;-78
2023/01/26 08:15:48;;;;;;;;;;;1.00;99.90;;;;;;5059046;28;20391;-78
2023/01/26 08:18:13;;;;;;;;;;;1.00;99.90;;;;;;5041134;28;19927;-78
2023/01/26 08:20:39;;;;;;;;;;;0.90;99.90;;;;;;5058937;28;19928;-78
2023/01/26 08:23:05;;;;;;;;;;;1.00;99.90;;;;;;5032683;28;20363;-78
2023/01/26 08:25:32;;;;;;;;;;;1.10;99.90;;;;;;5056029;28;19920;-78
2023/01/26 08:27:58;;;;;;;;;;;1.10;99.90;;;;;;5057523;28;20425;-79
2023/01/26 08:30:23;;;;;;;;;;;1.10;99.90;;;;;;5058692;28;19924;-79
2023/01/26 08:32:49;;;;;;;;;;;1.10;99.90;;;;;;5058756;28;19943;-79
2023/01/26 08:35:14;;;;;;;;;;;1.10;99.90;;;;;;5058502;28;19971;-79
2023/01/26 08:37:40;;;;;;;;;;;1.10;99.90;;;;;;5056960;28;20010;-79
2023/01/26 08:40:06;;;;;;;;;;;1.20;99.90;;;;;;5046284;28;19924;-79
2023/01/26 08:42:31;;;;;;;;;;;1.20;99.90;;;;;;5061853;28;19921;-78
2023/01/26 08:44:57;;;;;;;;;;;1.20;99.90;;;;;;5045446;28;19966;-79
2023/01/26 08:47:23;;;;;;;;;;;1.30;99.90;;;;;;5059058;28;19920;-79
2023/01/26 08:49:48;;;;;;;;;;;1.30;99.90;;;;;;5040917;28;19975;-79
2023/01/26 08:52:14;;;;;;;;;;;1.30;99.90;;;;;;5058798;28;19927;-79
2023/01/26 08:54:42;;;;;;;;;;;1.30;99.90;;;;;;5041259;28;19921;-80
2023/01/26 08:57:08;;;;;;;;;;;1.40;99.90;;;;;;5074227;28;19928;-79
2023/01/26 08:59:33;;;;;;;;;;;1.40;99.90;;;;;;5051449;28;19926;-80
2023/01/26 09:01:59;;;;;;;;;;;1.40;99.90;;;;;;5027575;28;19920;-80
2023/01/26 09:04:26;;;;;;;;;;;1.50;99.90;;;;;;5058394;28;19921;-79
2023/01/26 09:06:51;;;;;;;;;;;1.40;99.90;;;;;;5057682;28;19927;-80
2023/01/26 09:09:17;;;;;;;;;;;1.40;99.90;;;;;;5056541;28;20403;-80
2023/01/26 09:11:43;;;;;;;;;;;1.50;99.90;;;;;;5055747;28;20041;-80
2023/01/26 09:14:09;;;;;;;;;;;1.50;99.90;;;;;;5051692;28;19921;-80
2023/01/26 09:16:34;;;;;;;;;;;1.50;99.90;;;;;;5050258;28;19927;-80
2023/01/26 09:19:01;;;;;;;;;;;1.50;99.90;;;;;;5057739;28;20284;-80
2023/01/26 09:21:26;;;;;;;;;;;1.50;99.90;;;;;;5030485;28;19975;-80
2023/01/26 09:23:54;;;;;;;;;;;1.50;99.90;;;;;;5051640;28;20204;-81
2023/01/26 09:26:20;;;;;;;;;;;1.50;99.90;;;;;;5045236;28;19920;-81
2023/01/26 09:28:48;;;;;;;;;;;1.60;99.90;;;;;;5056010;28;19932;-82
2023/01/26 09:31:13;;;;;;;;;;;1.70;99.90;;;;;;5056215;28;19967;-82
2023/01/26 09:33:39;;;;;;;;;;;1.90;99.90;;;;;;5055752;28;19971;-81
2023/01/26 09:36:05;;;;;;;;;;;2.20;99.90;;;;;;5056124;28;19920;-82
2023/01/26 09:38:31;;;;;;;;;;;2.40;99.90;;;;;;5054346;28;19964;-82
2023/01/26 09:41:03;;;;;;;;;;;2.60;99.90;;;;;;5054528;28;19974;-83
2023/01/26 09:43:32;;;;;;;;;;;2.90;99.90;;;;;;5054466;28;19921;-83
2023/01/26 09:46:01;;;;;;;;;;;3.10;99.90;;;;;;5042597;28;19920;-83
2023/01/26 09:48:36;;;;;;;;;;;3.40;99.90;;;;;;5057779;28;19928;-82
2023/01/26 09:51:22;;;;;;;;;;;3.60;99.90;;;;;;5057071;28;19924;-83
2023/01/26 09:53:58;;;;;;;;;;;3.80;99.90;;;;;;5056557;28;19924;-83
2023/01/26 09:56:29;;;;;;;;;;;4.00;99.90;;;;;;5037872;28;19921;-82
2023/01/26 09:58:58;;;;;;;;;;;3.70;99.90;;;;;;5037331;28;20007;-81
2023/01/26 10:01:47;;;;;;;;;;;4.30;99.90;;;;;;5046199;28;20426;-81
2023/01/26 10:04:38;;;;;;;;;;;4.50;99.90;;;;;;5043957;28;20010;-80
2023/01/26 10:07:13;;;;;;;;;;;4.60;99.90;;;;;;5055586;28;19920;-81
2023/01/26 10:09:40;;;;;;;;;;;4.70;99.90;;;;;;5056489;28;19966;-81
2023/01/26 10:12:10;;;;;;;;;;;4.80;99.90;;;;;;5054130;28;20395;-79
2023/01/26 10:14:35;;;;;;;;;;;4.90;99.90;;;;;;5047969;28;19943;-80
2023/01/26 10:17:02;;;;;;;;;;;5.00;99.90;;;;;;5052201;28;19920;-80
2023/01/26 10:19:28;;;;;;;;;;;5.10;99.90;;;;;;5056868;28;19924;-80
2023/01/26 10:21:55;;;;;;;;;;;5.20;99.90;;;;;;5057122;28;19924;-79
2023/01/26 10:24:22;;;;;;;;;;;5.30;99.90;;;;;;5055759;28;19944;-79
2023/01/26 10:26:50;;;;;;;;;;;5.40;99.90;;;;;;5052148;28;20027;-79
2023/01/26 10:29:16;;;;;;;;;;;5.50;99.90;;;;;;5025545;28;19920;-82
2023/01/26 10:31:43;;;;;;;;;;;5.60;99.90;;;;;;5055585;28;20015;-78
2023/01/26 10:34:10;;;;;;;;;;;5.70;99.90;;;;;;5034811;28;19975;-78
2023/01/26 10:36:36;;;;;;;;;;;5.80;99.90;;;;;;5046504;28;20015;-78
2023/01/26 10:39:06;;;;;;;;;;;5.80;99.90;;;;;;5036788;28;20316;-78
2023/01/26 10:41:32;;;;;;;;;;;5.90;99.90;;;;;;5056564;28;19920;-78
2023/01/26 10:44:03;;;;;;;;;;;6.00;99.90;;;;;;5053515;28;19920;-79
2023/01/26 10:46:33;;;;;;;;;;;6.00;99.90;;;;;;5045973;28;19928;-78
2023/01/26 10:49:08;;;;;;;;;;;6.00;99.90;;;;;;5056012;28;19920;-78
2023/01/26 10:51:35;;;;;;;;;;;6.10;99.90;;;;;;5056411;28;19943;-79
2023/01/26 10:54:13;;;;;;;;;;;6.10;99.90;;;;;;5055141;28;19985;-78
2023/01/26 10:56:46;;;;;;;;;;;6.20;99.90;;;;;;5048220;28;20339;-78
2023/01/26 10:59:16;;;;;;;;;;;6.20;99.90;;;;;;5029241;28;19920;-78
2023/01/26 11:01:52;;;;;;;;;;;6.30;99.90;;;;;;5056030;28;20011;-78
2023/01/26 11:04:18;;;;;;;;;;;6.30;99.90;;;;;;5080434;28;19925;-78
2023/01/26 11:06:44;;;;;;;;;;;6.40;99.90;;;;;;5050874;28;19959;-81
2023/01/26 11:09:09;;;;;;;;;;;6.40;99.90;;;;;;5066764;28;19972;-78
2023/01/26 11:11:35;;;;;;;;;;;5.50;99.90;;;;;;5036035;28;20038;-78
2023/01/26 11:14:13;;;;;;;;;;;6.50;99.90;;;;;;5065929;28;19927;-78
2023/01/26 11:16:40;;;;;;;;;;;6.50;99.90;;;;;;5047959;28;19943;-79
2023/01/26 11:19:11;;;;;;;;;;;6.60;99.90;;;;;;5038581;28;19931;-78
2023/01/26 11:21:47;;;;;;;;;;;6.60;99.90;;;;;;5056030;28;19932;-78
2023/01/26 11:24:19;;;;;;;;;;;6.60;99.90;;;;;;5040522;28;19921;-78
2023/01/26 11:27:04;;;;;;;;;;;6.70;99.90;;;;;;5036240;28;19920;-79
2023/01/26 11:29:59;;;;;;;;;;;6.70;99.90;;;;;;5044478;28;19943;-79
2023/01/26 11:32:51;;;;;;;;;;;6.20;99.90;;;;;;5042169;28;19920;-80
2023/01/26 11:35:42;;;;;;;;;;;6.80;99.90;;;;;;5053593;28;20308;-79
2023/01/26 11:38:26;;;;;;;;;;;6.90;99.90;;;;;;5055812;28;19970;-79
2023/01/26 11:40:59;;;;;;;;;;;7.00;99.90;;;;;;5055436;28;20011;-79
2023/01/26 11:43:28;;;;;;;;;;;6.90;99.90;;;;;;5055458;28;19921;-78
2023/01/26 11:46:03;;;;;;;;;;;6.20;99.90;;;;;;5055327;28;20284;-79
2023/01/26 11:48:47;;;;;;;;;;;7.00;99.90;;;;;;5038682;28;19978;-78
2023/01/26 11:51:26;;;;;;;;;;;7.00;99.90;;;;;;5038801;28;19970;-78
2023/01/26 11:54:08;;;;;;;;;;;7.00;99.90;;;;;;5054699;28;20276;-79
2023/01/26 11:56:40;;;;;;;;;;;7.00;99.90;;;;;;5048015;28;20318;-78
2023/01/26 11:59:26;;;;;;;;;;;7.10;99.90;;;;;;5044310;28;20274;-78
2023/01/26 12:02:01;;;;;;;;;;;7.10;99.90;;;;;;5055094;28;19927;-79
2023/01/26 12:04:28;;;;;;;;;;;7.10;99.90;;;;;;5055281;28;19927;-78
2023/01/26 12:06:59;;;;;;;;;;;7.10;99.90;;;;;;5054736;28;19928;-78
2023/01/26 12:09:37;;;;;;;;;;;7.20;99.90;;;;;;5050829;28;19921;-78
2023/01/26 12:12:03;;;;;;;;;;;7.20;99.90;;;;;;5071811;28;19924;-80
2023/01/26 12:14:35;;;;;;;;;;;7.20;99.90;;;;;;5073292;28;19920;-78
2023/01/26 12:17:04;;;;;;;;;;;7.20;99.90;;;;;;5054630;28;19921;-79
2023/01/26 12:19:40;;;;;;;;;;;7.20;99.90;;;;;;5055191;28;20277;-79
2023/01/26 12:22:33;;;;;;;;;;;7.30;99.90;;;;;;5052583;28;19924;-79
2023/01/26 12:25:21;;;;;;;;;;;7.30;99.90;;;;;;5077618;28;19924;-78
2023/01/26 12:27:52;;;;;;;;;;;7.40;99.90;;;;;;5055373;28;19975;-81
2023/01/26 12:30:36;;;;;;;;;;;7.40;99.90;;;;;;5053325;28;19928;-79
2023/01/26 12:33:02;;;;;;;;;;;7.40;99.90;;;;;;5045242;28;19927;-78
2023/01/26 12:35:34;;;;;;;;;;;7.40;99.90;;;;;;5053049;28;20291;-79
2023/01/26 12:38:02;;;;;;;;;;;7.00;99.90;;;;;;5055129;28;19927;-78
2023/01/26 12:40:42;;;;;;;;;;;7.30;99.90;;;;;;5052247;28;19926;-79
2023/01/26 12:43:17;;;;;;;;;;;7.30;99.90;;;;;;5044139;28;19970;-78
2023/01/26 12:45:44;;;;;;;;;;;7.30;99.90;;;;;;5054373;28;19920;-78
2023/01/26 12:48:13;;;;;;;;;;;7.30;99.90;;;;;;5053050;28;19929;-79
2023/01/26 12:50:43;;;;;;;;;;;7.30;99.90;;;;;;5054609;28;19927;-79
2023/01/26 12:53:15;;;;;;;;;;;7.30;99.90;;;;;;5038340;28;19927;-79
2023/01/26 12:55:55;;;;;;;;;;;7.30;99.90;;;;;;5053735;28;19971;-79
2023/01/26 12:58:26;;;;;;;;;;;7.30;99.90;;;;;;5035198;28;19921;-80
2023/01/26 13:00:56;;;;;;;;;;;7.30;99.90;;;;;;5047668;28;19920;-79
2023/01/26 13:03:27;;;;;;;;;;;7.30;99.90;;;;;;5056315;28;19920;-81
2023/01/26 13:05:54;;;;;;;;;;;7.20;99.90;;;;;;5047251;28;20015;-78
2023/01/26 13:08:46;;;;;;;;;;;7.10;99.90;;;;;;5053819;28;20031;-80
2023/01/26 13:11:31;;;;;;;;;;;7.20;99.90;;;;;;5045849;28;19971;-79
2023/01/26 13:13:57;;;;;;;;;;;7.20;99.90;;;;;;5052250;28;19927;-78
2023/01/26 13:16:23;;;;;;;;;;;7.10;99.90;;;;;;5032759;28;20011;-80
2023/01/26 13:18:52;;;;;;;;;;;7.10;99.90;;;;;;5058561;28;20384;-79
2023/01/26 13:21:27;;;;;;;;;;;7.20;99.90;;;;;;5055090;28;19971;-79
2023/01/26 13:23:52;;;;;;;;;;;7.20;99.90;;;;;;5053095;28;20331;-79
2023/01/26 13:26:20;;;;;;;;;;;7.20;99.90;;;;;;5058343;28;20016;-79
2023/01/26 13:28:46;;;;;;;;;;;7.30;99.90;;;;;;5041143;28;19928;-80
2023/01/26 13:31:12;;;;;;;;;;;7.40;99.90;;;;;;5041336;28;19928;-78
2023/01/26 13:33:39;;;;;;;;;;;7.30;99.90;;;;;;5057819;28;19924;-79
2023/01/26 13:36:12;;;;;;;;;;;7.30;99.90;;;;;;5058212;28;20378;-79
2023/01/26 13:38:40;;;;;;;;;;;7.30;99.90;;;;;;5056096;28;19975;-80
2023/01/26 13:41:13;;;;;;;;;;;7.30;99.90;;;;;;5038363;28;20008;-79
2023/01/26 13:43:41;;;;;;;;;;;7.40;99.90;;;;;;5051254;28;19964;-79
2023/01/26 13:46:25;;;;;;;;;;;7.20;99.90;;;;;;5057416;28;19925;-78
2023/01/26 13:48:51;;;;;;;;;;;7.50;99.90;;;;;;5040331;28;19975;-78
2023/01/26 13:51:17;;;;;;;;;;;7.50;99.90;;;;;;5044152;28;20286;-79
2023/01/26 13:53:46;;;;;;;;;;;7.50;99.90;;;;;;5044421;28;20003;-78
2023/01/26 13:56:24;;;;;;;;;;;7.60;99.90;;;;;;5057267;28;19927;-78
2023/01/26 13:58:51;;;;;;;;;;;7.40;99.90;;;;;;5057300;28;19963;-79
2023/01/26 14:01:17;;;;;;;;;;;7.40;99.90;;;;;;5057409;28;20272;-78
2023/01/26 14:03:43;;;;;;;;;;;7.40;99.90;;;;;;5056415;28;19921;-77
2023/01/26 14:06:21;;;;;;;;;;;7.40;99.90;;;;;;5057371;28;19920;-78
2023/01/26 14:08:51;;;;;;;;;;;7.40;99.90;;;;;;5051132;28;19928;-79
2023/01/26 14:11:18;;;;;;;;;;;7.40;99.90;;;;;;5048272;28;20288;-79
2023/01/26 14:13:46;;;;;;;;;;;7.30;99.90;;;;;;5039666;28;19928;-78
2023/01/26 14:16:19;;;;;;;;;;;7.30;99.90;;;;;;5080309;28;19970;-78
2023/01/26 14:18:47;;;;;;;;;;;7.30;99.90;;;;;;5056621;28;19930;-79
2023/01/26 14:21:32;;;;;;;;;;;7.20;99.90;;;;;;5057273;28;19920;-78
2023/01/26 14:23:57;;;;;;;;;;;7.20;99.90;;;;;;5053018;28;19920;-79
2023/01/26 14:26:29;;;;;;;;;;;7.20;99.90;;;;;;5046950;28;20471;-79
2023/01/26 14:28:54;;;;;;;;;;;7.20;99.90;;;;;;5056866;28;19981;-79
2023/01/26 14:31:20;;;;;;;;;;;6.50;99.90;;;;;;5073158;28;19999;-79
2023/01/26 14:33:46;;;;;;;;;;;7.20;99.90;;;;;;5056076;28;19931;-78
2023/01/26 14:36:17;;;;;;;;;;;7.10;99.90;;;;;;5039979;28;19920;-79
2023/01/26 14:38:44;;;;;;;;;;;7.10;99.90;;;;;;5056129;28;19960;-78
2023/01/26 14:41:14;;;;;;;;;;;7.10;99.90;;;;;;5056361;28;19927;-78
2023/01/26 14:43:40;;;;;;;;;;;7.10;99.90;;;;;;5056620;28;20283;-79
2023/01/26 14:46:14;;;;;;;;;;;7.00;99.90;;;;;;5072877;28;19920;-78
2023/01/26 14:48:44;;;;;;;;;;;7.00;99.90;;;;;;5056614;28;19921;-79
2023/01/26 14:51:14;;;;;;;;;;;7.00;99.90;;;;;;5055889;28;20002;-78
2023/01/26 14:53:46;;;;;;;;;;;7.00;99.90;;;;;;5055216;28;19924;-79
2023/01/26 14:56:16;;;;;;;;;;;7.00;99.90;;;;;;5052678;28;20406;-79
2023/01/26 14:58:42;;;;;;;;;;;7.00;99.90;;;;;;5036045;28;19928;-78
2023/01/26 15:01:08;;;;;;;;;;;6.90;99.90;;;;;;5056418;28;19920;-79
2023/01/26 15:03:37;;;;;;;;;;;6.90;99.90;;;;;;5055219;28;19938;-81
2023/01/26 15:06:05;;;;;;;;;;;6.90;99.90;;;;;;5056701;28;20364;-78
2023/01/26 15:08:30;;;;;;;;;;;6.90;99.90;;;;;;5052688;28;20402;-78
2023/01/26 15:12:14;;;;;;;;;;;6.90;99.90;;;;;;5056320;28;19924;-79
2023/01/26 15:13:43;;;;;;;;;;;6.80;99.90;;;;;;5050946;28;20380;-79
2023/01/26 15:16:17;;;;;;;;;;;6.80;99.90;;;;;;5058515;28;19924;-79
2023/01/26 15:18:42;;;;;;;;;;;6.80;99.90;;;;;;5051701;28;19960;-79
2023/01/26 15:21:13;;;;;;;;;;;6.80;99.90;;;;;;5072283;28;20392;-78